Time;durP1;ratioP1;P1;durP2;ratioP2;P2;SDS_P1;SDS_P2;PMS_P1;PMS_P2;Temp;Humidity;BMP_temperature;BMP_pressure;BME280_temperature;BME280_humidity;BME280_pressure;Samples;Min_cycle;Max_cycle;Signal;HPM_P1;HPM_P2
2023/01/30 00:04:17;;;;;;;2.25;1.40;;;;;;;19.29;31.79;101913.84;16112773;19;129377;-47
2023/01/30 00:09:40;;;;;;;1.63;1.35;;;;;;;19.22;31.60;101900.03;16114004;19;129654;-48
2023/01/30 00:15:01;;;;;;;2.33;1.48;;;;;;;19.17;31.98;101898.97;16113657;19;129553;-49
2023/01/30 00:20:23;;;;;;;2.63;1.38;;;;;;;19.14;31.91;101880.00;16111335;19;131237;-46
2023/01/30 00:25:45;;;;;;;2.70;1.42;;;;;;;19.10;31.70;101868.53;16112975;19;130599;-52
2023/01/30 00:31:07;;;;;;;1.90;1.38;;;;;;;19.05;31.72;101847.03;16112022;19;130033;-53
2023/01/30 00:36:29;;;;;;;2.33;1.50;;;;;;;19.02;31.76;101864.09;16109854;19;130722;-47
2023/01/30 00:47:31;;;;;;;3.38;1.23;;;;;;;;;;16110231;19;129896;-50
2023/01/30 00:52:53;;;;;;;2.50;1.50;;;;;;;18.88;31.72;101857.81;16109466;19;129489;-50
2023/01/30 00:58:14;;;;;;;2.15;1.33;;;;;;;18.86;31.77;101853.56;16117852;19;129556;-49
2023/01/30 01:03:37;;;;;;;2.03;1.27;;;;;;;18.84;32.08;101852.94;16123289;19;131796;-48
2023/01/30 01:08:58;;;;;;;2.55;1.40;;;;;;;18.81;32.11;101864.50;16124411;19;130852;-48
2023/01/30 01:14:20;;;;;;;2.22;1.40;;;;;;;18.77;32.11;101859.38;16125717;19;129355;-49
2023/01/30 01:19:42;;;;;;;2.10;1.40;;;;;;;18.74;31.70;101847.91;16127043;19;129051;-50
2023/01/30 01:25:04;;;;;;;3.10;1.35;;;;;;;18.71;31.75;101849.19;16125847;19;131686;-47
2023/01/30 01:30:26;;;;;;;2.92;1.40;;;;;;;18.68;31.88;101838.56;16123319;19;129061;-50
2023/01/30 01:35:48;;;;;;;3.20;1.70;;;;;;;18.65;31.76;101827.91;16128667;19;134230;-48
2023/01/30 01:41:12;;;;;;;2.28;1.60;;;;;;;18.63;31.68;101838.38;16125489;19;129693;-48
2023/01/30 01:46:38;;;;;;;1.75;1.40;;;;;;;18.61;31.71;101832.22;16123413;19;129553;-48
2023/01/30 01:52:04;;;;;;;2.90;1.50;;;;;;;18.59;32.06;101828.81;16125578;19;129355;-47
2023/01/30 01:57:31;;;;;;;2.90;1.45;;;;;;;18.56;32.20;101829.28;16127338;19;129453;-51
2023/01/30 02:02:57;;;;;;;2.55;1.50;;;;;;;18.53;31.81;101829.72;16124362;19;130468;-48
2023/01/30 02:08:24;;;;;;;;;;;;;;;18.48;32.13;101815.66;16123784;19;131206;-49
2023/01/30 02:13:47;;;;;;;1.70;1.30;;;;;;;18.48;32.07;101812.91;16127151;19;130541;-50
2023/01/30 02:19:44;;;;;;;2.83;1.60;;;;;;;18.45;32.18;101787.38;16127480;19;129951;-49
2023/01/30 02:25:32;;;;;;;1.70;1.27;;;;;;;18.41;31.78;101760.31;16120706;19;132052;-46
2023/01/30 02:31:03;;;;;;;1.75;1.20;;;;;;;18.40;32.09;101748.38;16122696;19;129388;-52
2023/01/30 02:36:39;;;;;;;3.28;1.40;;;;;;;18.37;32.12;101751.56;16126590;19;129500;-47
2023/01/30 02:42:14;;;;;;;1.40;1.30;;;;;;;18.35;32.15;101762.03;16123731;19;129713;-49
2023/01/30 02:47:54;;;;;;;1.43;0.93;;;;;;;18.32;32.27;101734.78;16119034;19;130309;-49
2023/01/30 02:53:16;;;;;;;1.65;0.98;;;;;;;18.31;32.13;101746.94;16116262;19;131183;-48
2023/01/30 02:58:45;;;;;;;2.15;0.93;;;;;;;18.29;32.01;101746.31;16121960;19;130086;-49
2023/01/30 03:04:26;;;;;;;2.05;1.15;;;;;;;18.26;32.35;101752.28;16120928;19;129541;-49
2023/01/30 03:09:53;;;;;;;2.72;1.20;;;;;;;18.24;31.95;101729.50;16122227;19;133022;-51
2023/01/30 03:15:39;;;;;;;1.10;1.00;;;;;;;18.23;32.32;101736.97;16117979;19;129973;-46
2023/01/30 03:21:05;;;;;;;1.58;1.15;;;;;;;18.20;32.31;101719.97;16118042;19;129998;-48
2023/01/30 03:26:31;;;;;;;1.58;1.00;;;;;;;18.19;32.38;101712.72;16118758;19;129293;-50
2023/01/30 03:31:53;;;;;;;1.50;1.08;;;;;;;18.17;32.00;101720.41;16116909;19;129267;-50
2023/01/30 03:37:15;;;;;;;1.30;1.00;;;;;;;18.14;32.03;101711.47;16115739;19;129380;-51
2023/01/30 03:42:37;;;;;;;1.25;0.95;;;;;;;18.13;32.41;101722.78;16117911;19;131654;-53
2023/01/30 03:47:58;;;;;;;1.70;1.08;;;;;;;18.13;32.06;101725.53;16121303;19;129865;-50
2023/01/30 03:53:20;;;;;;;1.13;0.80;;;;;;;18.11;32.29;101711.91;16116215;19;129126;-50
2023/01/30 03:58:42;;;;;;;2.50;1.10;;;;;;;18.10;32.44;101718.50;16119761;19;131197;-48
2023/01/30 04:04:04;;;;;;;1.20;0.85;;;;;;;18.09;32.48;101711.28;16118365;19;129819;-49
2023/01/30 04:09:25;;;;;;;1.25;1.00;;;;;;;18.08;32.45;101722.59;16119668;19;129991;-48
2023/01/30 04:14:47;;;;;;;1.42;0.82;;;;;;;18.06;32.10;101717.28;16117215;19;129897;-47
2023/01/30 04:20:10;;;;;;;1.88;0.93;;;;;;;18.04;32.17;101716.66;16118675;19;130018;-47
2023/01/30 04:25:31;;;;;;;2.05;0.80;;;;;;;18.03;32.21;101720.50;16113486;19;129757;-49
2023/01/30 04:30:53;;;;;;;2.10;1.00;;;;;;;18.02;32.33;101702.19;16119635;19;129331;-54
2023/01/30 04:36:15;;;;;;;1.02;0.70;;;;;;;18.00;32.18;101693.25;16135562;19;130039;-50
2023/01/30 04:41:37;;;;;;;1.58;0.90;;;;;;;17.99;32.17;101686.00;16132479;19;130832;-47
2023/01/30 04:46:59;;;;;;;1.65;0.90;;;;;;;17.97;32.34;101682.63;16132872;19;129973;-47
2023/01/30 04:52:20;;;;;;;2.75;0.80;;;;;;;17.95;32.65;101684.78;16130272;19;130541;-47
2023/01/30 04:57:42;;;;;;;1.20;0.82;;;;;;;17.92;32.23;101669.44;16129897;19;130573;-51
2023/01/30 05:03:05;;;;;;;1.02;0.63;;;;;;;17.92;32.31;101665.84;16130246;19;130144;-49
2023/01/30 05:08:27;;;;;;;1.90;0.90;;;;;;;17.90;32.49;101682.69;16129524;19;130980;-51
2023/01/30 05:13:48;;;;;;;2.22;0.55;;;;;;;17.90;32.69;101698.41;16125556;19;129580;-51
2023/01/30 05:19:12;;;;;;;1.88;0.80;;;;;;;17.88;32.67;101683.94;16132777;19;129993;-56
2023/01/30 05:24:35;;;;;;;2.42;0.95;;;;;;;17.87;32.73;101688.66;16128917;19;130689;-58
2023/01/30 05:29:57;;;;;;;1.88;0.95;;;;;;;17.84;32.78;101719.53;16126915;19;129136;-55
2023/01/30 05:35:19;;;;;;;1.40;0.65;;;;;;;17.84;32.81;101701.03;16126023;19;129522;-50
2023/01/30 05:40:41;;;;;;;1.52;0.80;;;;;;;17.83;32.41;101704.88;16126135;19;129732;-49
2023/01/30 05:46:05;;;;;;;2.40;0.80;;;;;;;17.82;32.78;101703.16;16124187;19;134287;-49
2023/01/30 05:51:26;;;;;;;2.17;0.70;;;;;;;17.80;32.49;101705.28;16122436;19;130746;-50
2023/01/30 05:56:49;;;;;;;1.95;0.60;;;;;;;17.78;32.67;101710.19;16128424;19;130217;-48
2023/01/30 06:02:11;;;;;;;1.10;0.52;;;;;;;17.77;32.58;101713.19;16122963;19;129551;-51
2023/01/30 06:07:32;;;;;;;2.40;0.70;;;;;;;17.76;32.64;101728.94;16124732;19;130472;-48
2023/01/30 06:12:54;;;;;;;2.38;0.52;;;;;;;17.78;32.91;101720.44;16124965;19;130183;-49
2023/01/30 06:18:16;;;;;;;4.97;0.95;;;;;;;17.78;32.78;101734.28;16122140;19;129554;-50
2023/01/30 06:23:37;;;;;;;3.25;0.60;;;;;;;17.78;32.92;101745.34;16121920;19;130740;-48
2023/01/30 06:28:59;;;;;;;2.42;0.93;;;;;;;17.77;33.08;101741.72;16122410;19;131093;-47
2023/01/30 06:34:21;;;;;;;4.43;0.60;;;;;;;17.77;32.81;101738.09;16120901;19;129462;-49
2023/01/30 06:39:43;;;;;;;4.68;0.80;;;;;;;17.76;32.88;101740.00;16123386;19;129172;-48
2023/01/30 06:45:05;;;;;;;7.30;0.82;;;;;;;17.76;32.85;101745.56;16120374;19;129720;-51
2023/01/30 06:50:28;;;;;;;8.90;1.00;;;;;;;17.75;32.74;101754.91;16121303;19;129740;-50
2023/01/30 06:55:50;;;;;;;4.70;0.90;;;;;;;17.76;32.97;101728.94;16115281;19;130092;-52
2023/01/30 07:01:11;;;;;;;5.88;0.70;;;;;;;17.75;33.28;101734.72;16119790;19;129753;-49
2023/01/30 07:06:33;;;;;;;6.60;1.27;;;;;;;17.72;33.17;101749.84;16119883;19;130368;-50
2023/01/30 07:11:55;;;;;;;7.18;0.95;;;;;;;17.72;33.39;101748.97;16120355;19;129740;-51
2023/01/30 07:17:17;;;;;;;5.43;0.68;;;;;;;17.69;33.12;101769.66;16115131;19;130067;-52
2023/01/30 07:22:39;;;;;;;6.25;0.80;;;;;;;17.68;33.24;101773.47;16119094;19;130567;-52
2023/01/30 07:28:02;;;;;;;3.55;0.88;;;;;;;17.67;33.13;101777.31;16117640;19;129167;-51
2023/01/30 07:33:24;;;;;;;3.75;0.93;;;;;;;17.65;33.25;101791.38;16116216;19;129954;-53
2023/01/30 07:38:48;;;;;;;3.50;0.60;;;;;;;17.65;33.37;101801.59;16117262;19;131270;-53
2023/01/30 07:44:11;;;;;;;2.35;0.70;;;;;;;17.63;33.01;101803.72;16115071;19;130712;-47
2023/01/30 07:49:33;;;;;;;3.55;0.93;;;;;;;17.63;33.28;101806.47;16119128;19;130052;-52
2023/01/30 07:54:55;;;;;;;3.58;1.02;;;;;;;17.74;32.89;101816.03;16116605;19;131163;-49
2023/01/30 08:00:17;;;;;;;5.43;0.63;;;;;;;17.94;33.00;101804.88;16116974;19;130824;-48
2023/01/30 08:05:39;;;;;;;4.90;0.90;;;;;;;18.19;32.49;101809.66;16119802;19;130578;-49
2023/01/30 08:11:01;;;;;;;7.47;1.45;;;;;;;18.21;32.36;101804.75;16134297;19;129725;-50
2023/01/30 08:16:23;;;;;;;4.63;1.00;;;;;;;18.45;32.14;101800.34;16132536;19;130022;-50
2023/01/30 08:21:44;;;;;;;4.97;0.70;;;;;;;19.03;31.33;101785.38;16133552;19;130063;-52
2023/01/30 08:27:07;;;;;;;3.72;0.68;;;;;;;19.33;31.27;101804.06;16131348;19;130280;-51
2023/01/30 08:32:28;;;;;;;2.63;0.90;;;;;;;19.33;30.91;101817.94;16127219;19;130408;-49
2023/01/30 08:37:50;;;;;;;2.88;0.70;;;;;;;19.60;30.33;101839.88;16128532;19;130137;-52
2023/01/30 08:43:12;;;;;;;2.00;0.70;;;;;;;19.14;31.03;101830.91;16130186;19;131513;-51
2023/01/30 08:48:36;;;;;;;4.55;0.70;;;;;;;19.00;30.98;101846.00;16129541;19;129493;-49
2023/01/30 08:54:10;;;;;;;3.05;0.75;;;;;;;19.02;31.13;101841.91;16129395;19;129444;-54
2023/01/30 08:59:32;;;;;;;5.05;1.00;;;;;;;18.81;31.53;101862.56;16131550;19;130057;-53
2023/01/30 09:04:53;;;;;;;1.40;0.50;;;;;;;18.60;31.72;101877.63;16130557;19;130571;-52
2023/01/30 09:10:16;;;;;;;1.48;0.50;;;;;;;18.45;31.75;101872.38;16130150;19;129295;-50
2023/01/30 09:15:41;;;;;;;2.15;0.63;;;;;;;18.34;32.19;101876.66;16128061;19;131908;-51
2023/01/30 09:21:04;;;;;;;2.00;0.70;;;;;;;18.22;32.33;101879.28;16125430;19;132978;-52
2023/01/30 09:26:26;;;;;;;6.80;1.10;;;;;;;18.15;32.24;101873.78;16128605;19;129526;-49
2023/01/30 09:31:48;;;;;;;3.53;1.00;;;;;;;18.10;32.30;101887.44;16129324;19;130029;-52
2023/01/30 09:37:10;;;;;;;3.97;0.80;;;;;;;18.06;32.68;101875.13;16127969;19;131581;-48
2023/01/30 09:42:56;;;;;;;2.50;0.50;;;;;;;18.04;32.48;101887.47;16127443;19;131946;-52
2023/01/30 09:48:52;;;;;;;2.92;0.60;;;;;;;17.98;32.53;101886.41;16126949;19;130891;-50
2023/01/30 09:54:21;;;;;;;4.85;0.80;;;;;;;17.94;32.36;101899.00;16126513;19;130868;-49
2023/01/30 09:59:55;;;;;;;4.85;1.02;;;;;;;17.89;32.58;101919.03;16123620;19;129881;-50
2023/01/30 10:05:17;;;;;;;6.85;1.00;;;;;;;17.83;32.42;101926.31;16122691;19;129466;-52
2023/01/30 10:11:11;;;;;;;4.03;1.35;;;;;;;17.80;32.63;101937.81;16122772;19;130966;-49
2023/01/30 10:17:00;;;;;;;6.18;1.00;;;;;;;17.79;32.77;101929.69;16114005;19;129368;-48
2023/01/30 10:22:52;;;;;;;4.70;1.30;;;;;;;17.76;32.25;101947.59;16114268;19;129608;-53
2023/01/30 10:28:39;;;;;;;7.10;1.45;;;;;;;17.71;32.24;101950.16;16113221;19;129752;-52
2023/01/30 10:34:09;;;;;;;8.45;1.77;;;;;;;17.65;32.58;101946.34;16110934;19;130515;-52
2023/01/30 10:39:38;;;;;;;4.78;1.10;;;;;;;17.64;32.35;101943.78;16107710;19;129404;-48
2023/01/30 10:45:19;;;;;;;3.92;1.10;;;;;;;17.57;32.48;101956.78;16111874;19;130566;-54
2023/01/30 10:50:52;;;;;;;6.15;1.58;;;;;;;17.52;32.16;101954.63;16115742;19;129710;-53
2023/01/30 10:56:36;;;;;;;9.88;1.52;;;;;;;17.52;32.36;101951.84;16122735;19;130833;-54
2023/01/30 11:02:12;;;;;;;13.43;2.05;;;;;;;17.50;32.28;101954.81;16120842;19;130643;-47
2023/01/30 11:07:33;;;;;;;7.20;1.38;;;;;;;17.47;32.24;101955.28;16120642;19;129426;-54
2023/01/30 11:13:09;;;;;;;9.40;1.80;;;;;;;17.47;32.24;101966.34;16129282;19;129846;-52
2023/01/30 11:18:32;;;;;;;5.20;1.10;;;;;;;17.46;32.34;101967.41;16120916;19;130318;-51
2023/01/30 11:24:18;;;;;;;11.88;1.85;;;;;;;17.44;32.18;101969.53;16119539;19;129262;-50
2023/01/30 11:29:40;;;;;;;;;;;;;;;17.40;32.52;101968.22;16119509;19;130404;-50
2023/01/30 11:35:07;;;;;;;7.35;1.60;;;;;;;17.41;32.50;101961.63;16117360;19;129690;-48
2023/01/30 11:40:30;;;;;;;8.75;2.00;;;;;;;17.40;32.25;101962.69;16113987;19;129768;-51
2023/01/30 11:45:52;;;;;;;11.25;2.28;;;;;;;17.51;32.49;101967.59;16116011;19;129809;-51
2023/01/30 11:51:15;;;;;;;9.80;1.50;;;;;;;17.67;32.22;101965.50;16114123;19;129465;-55
2023/01/30 11:56:47;;;;;;;6.35;1.45;;;;;;;17.82;31.78;101973.56;16113892;19;129583;-52
2023/01/30 12:02:12;;;;;;;11.60;2.00;;;;;;;17.96;31.85;101972.47;16111294;19;129309;-51
2023/01/30 12:07:36;;;;;;;7.40;1.58;;;;;;;18.03;31.54;101969.69;16115902;19;130411;-49
2023/01/30 12:13:05;;;;;;;10.52;2.10;;;;;;;18.06;31.50;101980.34;16115094;19;129705;-49
2023/01/30 12:18:45;;;;;;;9.20;1.92;;;;;;;18.07;30.91;101982.03;16118314;19;129379;-53
2023/01/30 12:24:24;;;;;;;13.00;1.90;;;;;;;18.04;31.16;101990.78;16117149;19;129442;-51
2023/01/30 12:29:52;;;;;;;8.48;1.75;;;;;;;17.97;31.07;101976.94;16111482;19;129833;-48
2023/01/30 12:35:23;;;;;;;8.02;1.50;;;;;;;17.92;31.23;101962.88;16113518;19;130102;-50
2023/01/30 12:41:26;;;;;;;8.35;1.98;;;;;;;17.85;30.87;101960.13;16112720;19;131170;-52
2023/01/30 12:47:06;;;;;;;5.68;1.27;;;;;;;17.79;31.14;101961.00;16105389;19;135173;-52
2023/01/30 12:53:01;;;;;;;8.40;1.88;;;;;;;17.77;30.90;101982.50;16112622;19;130989;-54
2023/01/30 12:58:33;;;;;;;5.47;1.50;;;;;;;17.71;30.87;101977.84;16130654;19;130826;-49
2023/01/30 13:04:20;;;;;;;9.25;1.75;;;;;;;17.68;30.75;101978.28;16131445;19;130341;-52
2023/01/30 13:10:00;;;;;;;;;;;;;;;17.58;30.89;101972.31;16131452;19;130801;-50
2023/01/30 13:15:25;;;;;;;8.75;1.90;;;;;;;17.58;30.63;101977.84;16127830;19;129650;-55
2023/01/30 13:21:19;;;;;;;8.37;1.70;;;;;;;17.57;30.77;101992.75;16125476;19;130752;-51
2023/01/30 13:26:42;;;;;;;8.52;1.95;;;;;;;17.51;31.06;101981.44;16127320;19;130081;-52
2023/01/30 13:32:13;;;;;;;6.10;1.75;;;;;;;17.51;30.85;101986.97;16125784;19;129622;-51
2023/01/30 13:37:36;;;;;;;8.30;2.10;;;;;;;17.49;31.12;101991.84;16125048;19;129576;-51
2023/01/30 13:43:06;;;;;;;11.07;2.03;;;;;;;17.48;30.99;102000.38;16129897;19;130804;-49
2023/01/30 13:48:59;;;;;;;8.55;2.03;;;;;;;17.44;30.84;102016.56;16129123;19;131072;-51
2023/01/30 13:54:20;;;;;;;11.52;2.20;;;;;;;17.37;30.62;102033.13;16121740;19;129382;-48
2023/01/30 14:00:03;;;;;;;17.88;2.17;;;;;;;17.37;31.20;102037.81;16115041;19;133098;-49
2023/01/30 14:05:50;;;;;;;22.65;2.90;;;;;;;17.38;31.22;102050.56;16121131;19;130138;-47
2023/01/30 14:11:46;;;;;;;13.23;2.80;;;;;;;17.38;31.25;102042.28;16123875;19;129840;-47
2023/01/30 14:17:13;;;;;;;11.43;1.98;;;;;;;17.35;30.80;102045.50;16123244;19;129803;-53
2023/01/30 14:22:52;;;;;;;15.82;2.20;;;;;;;17.34;30.62;102068.66;16122619;19;130172;-50
2023/01/30 14:28:16;;;;;;;12.10;1.95;;;;;;;17.29;30.58;102079.50;16121803;19;131873;-52
2023/01/30 14:33:49;;;;;;;8.88;2.13;;;;;;;17.26;30.92;102096.50;16122356;19;129557;-50
2023/01/30 14:39:37;;;;;;;9.88;2.20;;;;;;;17.22;30.36;102096.94;16122622;19;130024;-50
2023/01/30 14:45:40;;;;;;;11.23;2.58;;;;;;;17.18;30.48;102101.19;16126892;19;129733;-57
2023/01/30 14:51:24;;;;;;;11.90;2.55;;;;;;;17.20;30.82;102115.66;16125839;19;129554;-56
2023/01/30 14:57:15;;;;;;;17.38;2.28;;;;;;;17.19;30.75;102132.44;16124303;19;131170;-55
2023/01/30 15:02:42;;;;;;;10.68;1.88;;;;;;;17.19;30.57;102136.06;16124957;19;130074;-48
2023/01/30 15:08:14;;;;;;;8.70;1.65;;;;;;;17.19;30.88;102147.13;16124925;19;129615;-47
2023/01/30 15:13:38;;;;;;;12.88;2.15;;;;;;;17.16;30.58;102155.84;16122048;19;131023;-48
2023/01/30 15:19:21;;;;;;;12.13;2.07;;;;;;;17.15;30.91;102156.88;16118566;19;131109;-51
2023/01/30 15:25:08;;;;;;;13.02;2.33;;;;;;;17.35;30.44;102161.66;16121445;19;129595;-47
2023/01/30 15:30:59;;;;;;;13.50;1.85;;;;;;;17.74;30.43;102170.31;16116555;19;129578;-56
2023/01/30 15:36:33;;;;;;;10.52;1.75;;;;;;;18.23;29.71;102176.50;16119884;19;129552;-50
2023/01/30 15:42:04;;;;;;;8.40;1.92;;;;;;;18.74;29.58;102189.72;16117753;19;129453;-51
2023/01/30 15:47:41;;;;;;;9.77;1.95;;;;;;;19.04;29.32;102192.00;16118182;19;130308;-51
2023/01/30 15:53:07;;;;;;;8.63;1.80;;;;;;;19.14;29.33;102204.53;16116827;19;131237;-49
2023/01/30 15:58:31;;;;;;;9.55;2.40;;;;;;;19.13;28.75;102214.81;16116281;19;129540;-59
2023/01/30 16:03:53;;;;;;;5.13;1.75;;;;;;;19.10;28.87;102233.78;16114584;19;129648;-55
2023/01/30 16:09:20;;;;;;;5.20;1.65;;;;;;;19.02;29.07;102244.06;16115068;19;129979;-54
2023/01/30 16:14:42;;;;;;;9.75;1.70;;;;;;;18.90;29.24;102251.31;16113993;19;129248;-57
2023/01/30 16:20:06;;;;;;;8.73;1.83;;;;;;;18.77;28.96;102258.59;16114436;19;130398;-56
2023/01/30 16:25:33;;;;;;;9.80;1.95;;;;;;;18.66;29.46;102284.19;16116234;19;129749;-49
2023/01/30 16:31:06;;;;;;;6.97;1.77;;;;;;;18.58;29.09;102292.72;16128573;19;129457;-51
2023/01/30 16:36:32;;;;;;;6.35;1.63;;;;;;;18.47;29.41;102302.53;16129662;19;129592;-60
2023/01/30 16:41:55;;;;;;;7.10;1.40;;;;;;;18.43;30.19;102296.56;16129775;19;131037;-48
2023/01/30 16:47:30;;;;;;;7.50;2.00;;;;;;;18.37;30.23;102302.91;16127647;19;129956;-50
2023/01/30 16:52:54;;;;;;;6.88;1.67;;;;;;;18.27;30.54;102308.00;16124975;19;130697;-52
2023/01/30 16:58:16;;;;;;;7.18;1.83;;;;;;;18.18;30.35;102318.41;16130474;19;129588;-48
2023/01/30 17:03:42;;;;;;;12.07;2.17;;;;;;;18.13;30.58;102329.28;16130405;19;130185;-52
2023/01/30 17:09:43;;;;;;;7.13;1.98;;;;;;;18.07;30.53;102328.19;16128205;19;133391;-49
2023/01/30 17:15:10;;;;;;;9.00;1.77;;;;;;;18.04;30.61;102336.91;16122683;19;129089;-48
2023/01/30 17:20:37;;;;;;;5.22;1.27;;;;;;;18.12;30.37;102345.03;16124987;19;129860;-52
2023/01/30 17:25:59;;;;;;;7.18;1.90;;;;;;;18.28;29.93;102362.34;16124630;19;131315;-50
2023/01/30 17:31:22;;;;;;;9.55;2.00;;;;;;;18.50;29.70;102374.16;16124331;19;131598;-50
2023/01/30 17:36:45;;;;;;;12.90;1.98;;;;;;;18.75;29.45;102374.41;16123840;19;130284;-49
2023/01/30 17:42:11;;;;;;;10.45;1.90;;;;;;;19.08;29.58;102381.84;16122959;19;129616;-53
2023/01/30 17:47:32;;;;;;;9.85;2.35;;;;;;;19.27;29.60;102393.19;16123038;19;129534;-47
2023/01/30 17:52:56;;;;;;;10.07;2.15;;;;;;;19.36;29.29;102400.22;16124375;19;131021;-51
2023/01/30 17:58:18;;;;;;;6.82;2.15;;;;;;;19.38;29.23;102395.31;16123386;19;129321;-49
2023/01/30 18:03:39;;;;;;;10.95;1.83;;;;;;;19.33;29.76;102389.56;16123584;19;131004;-53
2023/01/30 18:09:03;;;;;;;13.65;2.05;;;;;;;19.25;29.95;102400.03;16120337;19;131775;-52
2023/01/30 18:14:25;;;;;;;7.10;1.98;;;;;;;19.15;29.87;102417.09;16122136;19;130719;-49
2023/01/30 18:19:47;;;;;;;6.50;1.88;;;;;;;19.04;29.79;102429.66;16122740;19;130506;-49
2023/01/30 18:25:12;;;;;;;9.55;2.35;;;;;;;18.95;30.16;102426.25;16119521;19;131005;-51
2023/01/30 18:30:34;;;;;;;6.73;2.17;;;;;;;18.82;30.49;102427.09;16120782;19;129511;-49
2023/01/30 18:35:55;;;;;;;8.15;1.95;;;;;;;18.83;30.22;102439.03;16120308;19;130677;-50
2023/01/30 18:41:20;;;;;;;9.32;1.98;;;;;;;18.89;30.29;102433.47;16120320;19;130470;-51
2023/01/30 18:46:42;;;;;;;14.03;3.10;;;;;;;19.11;30.27;102443.53;16120103;19;130679;-52
2023/01/30 18:52:04;;;;;;;8.75;2.35;;;;;;;19.50;30.25;102447.41;16119137;19;130820;-49
2023/01/30 18:57:26;;;;;;;9.18;2.35;;;;;;;19.97;30.20;102456.47;16119207;19;130500;-47
2023/01/30 19:02:52;;;;;;;7.03;2.20;;;;;;;20.39;29.83;102471.97;16123359;19;129372;-47
2023/01/30 19:08:13;;;;;;;7.22;2.28;;;;;;;20.75;29.51;102484.41;16120119;19;130444;-48
2023/01/30 19:13:36;;;;;;;14.77;2.88;;;;;;;21.01;29.63;102490.91;16119914;19;129791;-54
2023/01/30 19:18:58;;;;;;;12.73;2.63;;;;;;;21.22;29.11;102496.09;16119490;19;129407;-54
2023/01/30 19:24:19;;;;;;;20.10;3.42;;;;;;;21.40;29.67;102497.25;16121074;19;132263;-51
2023/01/30 19:29:42;;;;;;;21.88;3.47;;;;;;;21.52;29.75;102498.25;16118283;19;129259;-48
2023/01/30 19:35:04;;;;;;;16.73;3.13;;;;;;;21.57;29.83;102513.41;16120191;19;130093;-47
2023/01/30 19:40:26;;;;;;;14.73;2.75;;;;;;;21.50;29.96;102513.47;16120243;19;129871;-53
2023/01/30 19:45:58;;;;;;;16.85;2.70;;;;;;;21.37;30.07;102522.75;16117874;19;129342;-54
2023/01/30 19:51:28;;;;;;;17.08;2.88;;;;;;;21.18;30.44;102530.19;16116104;19;129510;-49
2023/01/30 19:56:50;;;;;;;15.40;3.08;;;;;;;20.94;30.55;102513.22;16121993;19;129842;-55
2023/01/30 20:02:12;;;;;;;16.20;2.55;;;;;;;20.75;30.90;102520.56;16119763;19;129464;-51
2023/01/30 20:07:36;;;;;;;25.63;2.83;;;;;;;20.56;31.39;102520.41;16131090;19;130928;-50
2023/01/30 20:12:57;;;;;;;12.02;2.38;;;;;;;20.40;31.81;102524.56;16131602;19;130504;-57
2023/01/30 20:18:19;;;;;;;21.08;2.78;;;;;;;20.26;31.99;102520.97;16129488;19;129512;-52
2023/01/30 20:23:43;;;;;;;20.65;3.17;;;;;;;20.11;31.93;102520.38;16129735;19;130378;-53
2023/01/30 20:29:07;;;;;;;23.23;2.78;;;;;;;19.99;32.49;102531.28;16130741;19;130931;-51
2023/01/30 20:34:28;;;;;;;15.70;2.47;;;;;;;19.90;32.67;102533.44;16126887;19;131732;-53
2023/01/30 20:39:50;;;;;;;14.80;2.78;;;;;;;19.82;33.37;102541.97;16127780;19;129866;-54
2023/01/30 20:45:12;;;;;;;17.98;2.60;;;;;;;19.76;33.58;102537.28;16129224;19;131038;-55
2023/01/30 20:50:34;;;;;;;11.00;2.03;;;;;;;19.81;33.27;102545.84;16129184;19;129639;-55
2023/01/30 20:55:57;;;;;;;24.92;3.03;;;;;;;19.97;33.55;102534.25;16131481;19;129518;-58
2023/01/30 21:01:21;;;;;;;15.90;3.00;;;;;;;20.18;32.91;102535.13;16139790;19;130093;-53
2023/01/30 21:06:44;;;;;;;19.10;2.50;;;;;;;20.37;32.96;102522.22;16136357;19;131286;-53
2023/01/30 21:12:07;;;;;;;20.73;3.08;;;;;;;20.51;32.84;102514.69;16138348;19;129506;-52
2023/01/30 21:17:29;;;;;;;20.65;2.45;;;;;;;20.59;32.80;102531.09;16127484;19;133322;-54
2023/01/30 21:22:51;;;;;;;13.20;2.58;;;;;;;20.63;32.92;102530.69;16128248;19;131912;-53
2023/01/30 21:28:13;;;;;;;16.40;2.90;;;;;;;20.65;32.72;102534.09;16112450;19;130524;-55
2023/01/30 21:33:35;;;;;;;6.78;2.05;;;;;;;20.68;32.76;102530.84;16115680;19;130335;-52
2023/01/30 21:44:37;;;;;;;15.05;2.33;;;;;;;20.61;32.73;102528.13;16122814;19;129442;-50
2023/01/30 21:49:59;;;;;;;9.85;1.92;;;;;;;20.50;33.19;102526.88;16120807;19;130332;-52
2023/01/30 21:55:21;;;;;;;12.57;2.13;;;;;;;20.40;33.27;102526.50;16124305;19;131391;-53
2023/01/30 22:00:43;;;;;;;6.97;2.00;;;;;;;20.31;33.20;102533.38;16123248;19;130197;-56
2023/01/30 22:06:09;;;;;;;21.00;2.58;;;;;;;20.17;33.39;102533.41;16124375;19;130140;-56
2023/01/30 22:11:33;;;;;;;21.83;2.20;;;;;;;20.04;33.41;102533.44;16124226;19;130126;-56
2023/01/30 22:16:55;;;;;;;21.80;2.85;;;;;;;19.92;33.37;102534.06;16120077;19;130872;-56
2023/01/30 22:22:17;;;;;;;9.70;2.60;;;;;;;19.81;33.55;102534.72;16133091;19;129653;-56
2023/01/30 22:27:39;;;;;;;15.60;2.65;;;;;;;19.72;33.25;102536.00;16135516;19;129360;-56
2023/01/30 22:33:00;;;;;;;11.00;2.53;;;;;;;19.63;33.57;102543.72;16135206;19;129626;-56
2023/01/30 22:38:23;;;;;;;18.52;2.88;;;;;;;19.55;33.41;102532.81;16133067;19;129994;-50
2023/01/30 22:43:47;;;;;;;8.43;2.17;;;;;;;19.48;33.71;102535.56;16138645;19;130272;-54
2023/01/30 22:49:09;;;;;;;16.27;2.40;;;;;;;19.40;33.35;102541.34;16132250;19;129573;-52
2023/01/30 22:54:31;;;;;;;13.18;2.42;;;;;;;19.31;33.78;102541.56;16132436;19;129549;-56
2023/01/30 22:59:53;;;;;;;9.93;2.05;;;;;;;19.21;33.78;102536.41;16118086;19;130017;-54
2023/01/30 23:05:14;;;;;;;9.38;1.92;;;;;;;19.14;33.59;102540.22;16112007;19;131085;-56
2023/01/30 23:10:39;;;;;;;8.80;2.03;;;;;;;19.07;33.70;102529.97;16115334;19;129644;-50
2023/01/30 23:16:03;;;;;;;5.70;1.63;;;;;;;19.01;33.77;102524.41;16120310;19;130409;-54
2023/01/30 23:21:28;;;;;;;6.30;1.50;;;;;;;18.94;33.64;102509.66;16119309;19;130011;-53
2023/01/30 23:26:50;;;;;;;5.80;1.30;;;;;;;18.87;33.50;102513.28;16120385;19;129756;-53
2023/01/30 23:32:13;;;;;;;8.10;1.48;;;;;;;18.84;33.93;102507.28;16118266;19;130134;-55
2023/01/30 23:43:15;;;;;;;7.07;1.42;;;;;;;18.73;33.73;102484.63;16116116;19;130099;-55
2023/01/30 23:48:37;;;;;;;3.80;1.17;;;;;;;18.70;33.73;102481.44;16117508;19;129635;-55
2023/01/30 23:54:00;;;;;;;8.60;1.40;;;;;;;18.65;33.76;102473.75;16122168;19;129846;-57
2023/01/30 23:59:22;;;;;;;7.47;1.80;;;;;;;18.61;33.60;102476.09;16125487;19;129586;-58
